createdAt,value
2023-05-14T00:00:33.353Z,82.60
2023-05-14T00:03:00.320Z,84.12
2023-05-14T00:05:28.211Z,84.12
2023-05-14T00:07:55.799Z,84.12
2023-05-14T00:10:22.903Z,83.88
2023-05-14T00:12:52.216Z,84.02
2023-05-14T00:15:20.063Z,83.57
2023-05-14T00:17:47.201Z,85.92
2023-05-14T00:20:14.562Z,86.78
2023-05-14T00:22:41.921Z,86.12
2023-05-14T00:25:09.824Z,86.72
2023-05-14T00:27:38.270Z,85.94
2023-05-14T00:30:07.284Z,86.05
2023-05-14T00:32:34.660Z,86.10
2023-05-14T00:35:03.597Z,84.93
2023-05-14T00:37:30.874Z,84.82
2023-05-14T00:39:58.467Z,85.01
2023-05-14T00:42:26.106Z,86.03
2023-05-14T00:44:53.427Z,86.48
2023-05-14T00:47:22.132Z,86.64
2023-05-14T00:49:49.262Z,86.21
2023-05-14T00:52:17.329Z,85.35
2023-05-14T00:54:46.929Z,84.88
2023-05-14T00:57:13.966Z,84.62
2023-05-14T00:59:42.629Z,84.97
2023-05-14T01:02:09.593Z,86.29
2023-05-14T01:04:38.125Z,86.55
2023-05-14T01:07:18.319Z,85.70
2023-05-14T01:09:55.428Z,84.83
2023-05-14T01:12:35.390Z,85.14
2023-05-14T01:15:21.319Z,85.27
2023-05-14T01:17:59.550Z,84.29
2023-05-14T01:20:29.328Z,83.77
2023-05-14T01:22:57.229Z,83.67
2023-05-14T01:25:24.250Z,84.40
2023-05-14T01:27:56.949Z,83.73
2023-05-14T01:30:45.441Z,83.59
2023-05-14T01:33:16.507Z,82.64
2023-05-14T01:35:44.273Z,82.27
2023-05-14T01:38:13.890Z,82.78
2023-05-14T01:40:42.337Z,83.70
2023-05-14T01:43:09.757Z,83.34
2023-05-14T01:45:37.658Z,83.41
2023-05-14T01:48:05.718Z,83.58
2023-05-14T01:50:33.925Z,82.89
2023-05-14T01:58:24.646Z,83.71
2023-05-14T02:00:51.510Z,83.73
2023-05-14T02:03:18.576Z,83.36
2023-05-14T02:05:45.669Z,83.05
2023-05-14T02:08:12.498Z,83.32
2023-05-14T02:10:39.261Z,83.23
2023-05-14T02:34:42.024Z,84.62
2023-05-14T02:37:09.541Z,83.59
2023-05-14T02:39:36.310Z,83.82
2023-05-14T02:42:03.081Z,84.03
2023-05-14T02:44:31.874Z,84.91
2023-05-14T02:46:58.774Z,84.79
2023-05-14T02:49:25.584Z,84.54
2023-05-14T02:51:54.669Z,85.25
2023-05-14T02:54:21.717Z,85.27
2023-05-14T02:56:48.492Z,85.85
2023-05-14T02:59:15.704Z,86.33
2023-05-14T03:01:43.491Z,86.42
2023-05-14T03:04:11.133Z,85.86
2023-05-14T03:06:38.226Z,85.16
2023-05-14T03:09:05.098Z,85.03
2023-05-14T03:11:32.317Z,84.76
2023-05-14T03:13:59.091Z,84.90
2023-05-14T03:16:26.181Z,85.83
2023-05-14T03:18:53.446Z,86.03
2023-05-14T03:21:20.763Z,86.62
2023-05-14T03:23:47.763Z,86.42
2023-05-14T03:26:14.972Z,86.56
2023-05-14T03:28:42.237Z,86.23
2023-05-14T03:31:09.107Z,87.43
2023-05-14T03:33:36.267Z,88.88
2023-05-14T03:36:03.540Z,89.18
2023-05-14T03:38:30.576Z,89.29
2023-05-14T04:19:14.434Z,93.44
2023-05-14T04:21:41.147Z,94.12
2023-05-14T04:24:09.081Z,92.98
2023-05-14T04:26:35.891Z,93.55
2023-05-14T04:29:04.158Z,94.97
2023-05-14T04:31:31.901Z,94.49
2023-05-14T04:33:58.887Z,94.78
2023-05-14T04:36:25.564Z,93.22
2023-05-14T04:38:52.002Z,92.30
2023-05-14T04:41:18.800Z,92.39
2023-05-14T04:43:50.431Z,91.20
2023-05-14T04:46:17.483Z,91.42
2023-05-14T04:48:43.928Z,92.48
2023-05-14T04:51:10.500Z,92.52
2023-05-14T04:53:37.040Z,91.09
2023-05-14T04:56:03.581Z,90.97
2023-05-14T04:58:34.621Z,89.50
2023-05-14T05:01:03.073Z,88.86
2023-05-14T05:03:29.982Z,89.55
2023-05-14T05:05:56.572Z,89.08
2023-05-14T05:08:23.241Z,89.76
2023-05-14T05:10:50.055Z,89.28
2023-05-14T05:13:17.133Z,88.46
2023-05-14T05:15:44.083Z,88.10
2023-05-14T05:18:10.760Z,88.89
2023-05-14T05:20:37.260Z,88.16
2023-05-14T05:23:03.980Z,88.56
2023-05-14T05:25:31.415Z,87.91
2023-05-14T05:27:57.816Z,86.48
2023-05-14T05:30:24.657Z,87.39
2023-05-14T05:32:51.415Z,86.83
2023-05-14T05:35:18.179Z,85.00
2023-05-14T05:37:46.194Z,83.53
2023-05-14T05:40:14.313Z,82.16
2023-05-14T05:42:41.711Z,82.25
2023-05-14T05:45:10.755Z,81.85
2023-05-14T05:47:41.084Z,81.97
2023-05-14T05:50:08.867Z,80.88
2023-05-14T05:52:35.828Z,79.82
2023-05-14T05:55:02.537Z,77.84
2023-05-14T05:57:29.283Z,77.09
2023-05-14T05:59:55.828Z,78.14
2023-05-14T06:02:22.927Z,78.54
2023-05-14T06:04:51.467Z,78.07
2023-05-14T06:07:17.918Z,76.16
2023-05-14T06:09:44.312Z,76.81
2023-05-14T06:12:12.877Z,76.91
2023-05-14T06:14:39.249Z,75.73
2023-05-14T06:17:07.569Z,75.44
2023-05-14T06:19:34.107Z,74.36
2023-05-14T06:22:01.167Z,73.72
2023-05-14T06:24:27.605Z,73.20
2023-05-14T06:26:54.365Z,70.48
2023-05-14T06:29:21.001Z,71.56
2023-05-14T06:31:49.669Z,70.85
2023-05-14T06:34:16.430Z,71.35
2023-05-14T06:36:43.113Z,72.64
2023-05-14T06:39:10.191Z,73.31
2023-05-14T06:41:36.696Z,73.68
2023-05-14T06:44:05.849Z,73.13
2023-05-14T06:46:32.328Z,72.34
2023-05-14T06:48:59.627Z,71.72
2023-05-14T06:51:26.310Z,72.34
2023-05-14T06:53:54.823Z,71.91
2023-05-14T06:56:22.457Z,71.68
2023-05-14T06:58:49.228Z,71.42
2023-05-14T07:01:17.123Z,70.80
2023-05-14T07:03:43.676Z,70.41
2023-05-14T07:06:12.992Z,70.39
2023-05-14T07:08:40.244Z,70.45
2023-05-14T07:17:19.412Z,67.70
2023-05-14T07:19:47.130Z,67.92
2023-05-14T07:22:13.515Z,68.33
2023-05-14T07:24:39.952Z,69.83
2023-05-14T07:27:06.472Z,70.19
2023-05-14T07:29:34.960Z,70.31
2023-05-14T07:32:01.848Z,68.25
2023-05-14T07:34:28.256Z,68.17
2023-05-14T07:36:54.738Z,67.52
2023-05-14T07:39:21.704Z,66.89
2023-05-14T07:41:48.389Z,66.61
2023-05-14T07:44:14.796Z,66.51
2023-05-14T07:46:41.268Z,66.80
2023-05-14T07:49:07.675Z,66.98
2023-05-14T07:51:34.265Z,67.05
2023-05-14T07:54:00.964Z,66.43
2023-05-14T07:56:27.430Z,65.64
2023-05-14T07:58:53.862Z,65.26
2023-05-14T08:01:20.763Z,63.94
2023-05-14T08:03:47.659Z,64.38
2023-05-14T08:06:14.140Z,65.28
2023-05-14T08:08:40.844Z,64.73
2023-05-14T08:11:07.355Z,64.66
2023-05-14T08:13:33.825Z,64.70
2023-05-14T08:16:00.353Z,63.56
2023-05-14T08:18:26.799Z,64.40
2023-05-14T08:20:53.268Z,64.81
2023-05-14T08:23:19.674Z,64.92
2023-05-14T08:25:46.146Z,65.18
2023-05-14T08:28:12.536Z,65.21
2023-05-14T08:30:38.985Z,64.72
2023-05-14T08:33:05.534Z,64.80
2023-05-14T08:35:31.990Z,64.79
2023-05-14T08:37:58.400Z,62.24
2023-05-14T08:40:25.082Z,64.00
2023-05-14T08:42:52.932Z,64.37
2023-05-14T08:45:26.640Z,64.03
2023-05-14T08:47:53.676Z,63.59
2023-05-14T08:50:22.928Z,63.23
2023-05-14T08:52:50.261Z,63.71
2023-05-14T08:55:16.673Z,63.28
2023-05-14T08:57:43.111Z,63.80
2023-05-14T09:00:13.115Z,64.21
2023-05-14T09:02:40.894Z,64.39
2023-05-14T09:05:09.283Z,63.20
2023-05-14T09:07:36.263Z,64.77
2023-05-14T09:10:03.870Z,64.29
2023-05-14T09:12:31.078Z,64.36
2023-05-14T09:14:57.561Z,62.85
2023-05-14T09:17:25.831Z,62.43
2023-05-14T09:19:53.254Z,61.57
2023-05-14T09:22:20.504Z,62.58
2023-05-14T09:24:47.376Z,62.37
2023-05-14T09:27:22.454Z,62.91
2023-05-14T09:29:48.879Z,63.20
2023-05-14T09:32:15.286Z,63.65
2023-05-14T09:34:42.247Z,63.04
2023-05-14T09:37:09.756Z,63.60
2023-05-14T09:39:37.614Z,62.99
2023-05-14T09:42:04.540Z,63.03
2023-05-14T09:44:31.822Z,63.44
2023-05-14T09:46:58.447Z,63.72
2023-05-14T09:49:24.909Z,64.27
2023-05-14T09:51:51.813Z,61.74
2023-05-14T09:54:18.331Z,62.67
2023-05-14T09:56:44.955Z,62.18
2023-05-14T09:59:11.557Z,62.72
2023-05-14T10:01:38.646Z,61.07
2023-05-14T10:04:07.836Z,61.30
2023-05-14T10:06:37.849Z,61.04
2023-05-14T10:09:08.923Z,61.18
2023-05-14T10:11:38.311Z,61.29
2023-05-14T10:14:08.719Z,60.52
2023-05-14T10:16:40.812Z,61.68
2023-05-14T10:19:10.655Z,60.13
2023-05-14T10:21:38.817Z,59.19
2023-05-14T10:24:06.374Z,59.00
2023-05-14T10:26:37.693Z,58.48
2023-05-14T10:29:04.064Z,59.31
2023-05-14T10:31:50.411Z,60.04
2023-05-14T10:34:34.580Z,60.80
2023-05-14T10:37:02.535Z,60.78
2023-05-14T10:39:47.973Z,60.57
2023-05-14T10:42:27.372Z,60.88
2023-05-14T10:45:01.683Z,60.95
2023-05-14T10:47:29.188Z,60.11
2023-05-14T10:49:57.894Z,59.65
2023-05-14T10:52:25.557Z,60.02
2023-05-14T10:54:51.918Z,60.01
2023-05-14T10:57:19.718Z,60.18
2023-05-14T10:59:47.701Z,59.98
2023-05-14T11:02:37.713Z,59.92
2023-05-14T11:05:08.141Z,60.26
2023-05-14T11:07:39.972Z,60.37
2023-05-14T11:10:08.656Z,60.46
2023-05-14T11:12:37.669Z,60.54
2023-05-14T11:15:07.748Z,59.79
2023-05-14T11:17:35.662Z,60.60
2023-05-14T11:20:02.260Z,59.88
2023-05-14T11:22:28.923Z,60.04
2023-05-14T11:24:55.333Z,60.01
2023-05-14T11:27:23.468Z,59.58
2023-05-14T11:29:50.938Z,59.81
2023-05-14T11:32:18.784Z,58.83
2023-05-14T11:34:46.803Z,59.35
2023-05-14T11:37:15.712Z,60.32
2023-05-14T11:39:53.471Z,60.52
2023-05-14T11:42:21.346Z,60.19
2023-05-14T11:44:49.655Z,59.60
2023-05-14T11:47:18.329Z,59.49
2023-05-14T11:49:45.361Z,60.28
2023-05-14T11:52:16.522Z,59.56
2023-05-14T11:54:44.277Z,58.79
2023-05-14T11:57:16.678Z,58.15
2023-05-14T11:59:43.421Z,58.89
2023-05-14T12:02:15.354Z,58.89
2023-05-14T12:04:42.839Z,58.77
2023-05-14T12:07:11.336Z,58.57
2023-05-14T12:09:49.660Z,58.52
2023-05-14T12:12:21.789Z,57.56
2023-05-14T12:14:49.877Z,57.01
2023-05-14T12:17:19.091Z,58.41
2023-05-14T12:19:48.248Z,57.40
2023-05-14T12:22:18.657Z,58.71
2023-05-14T12:24:53.788Z,57.63
2023-05-14T12:27:26.264Z,58.20
2023-05-14T12:30:19.907Z,58.13
2023-05-14T12:32:52.637Z,57.65
2023-05-14T12:35:21.484Z,57.75
2023-05-14T12:37:48.022Z,56.86
2023-05-14T12:40:14.594Z,56.96
2023-05-14T12:42:41.302Z,56.37
2023-05-14T12:45:08.634Z,57.09
2023-05-14T12:47:36.465Z,56.37
2023-05-14T12:50:03.252Z,55.99
2023-05-14T12:54:59.072Z,57.04
2023-05-14T12:57:27.717Z,56.81
2023-05-14T12:59:55.580Z,56.63
2023-05-14T13:02:22.454Z,57.07
2023-05-14T13:04:48.936Z,55.35
2023-05-14T13:07:15.515Z,55.01
2023-05-14T13:09:41.938Z,55.74
2023-05-14T13:12:09.037Z,55.65
2023-05-14T13:14:36.410Z,55.63
2023-05-14T13:17:04.655Z,56.76
2023-05-14T13:19:31.168Z,56.61
2023-05-14T13:21:57.641Z,55.05
2023-05-14T13:24:25.006Z,54.66
2023-05-14T13:26:51.418Z,55.39
2023-05-14T13:29:17.857Z,58.69
2023-05-14T13:31:44.341Z,64.58
2023-05-14T13:34:10.809Z,64.84
2023-05-14T13:36:39.610Z,66.30
2023-05-14T13:39:07.152Z,70.96
2023-05-14T13:41:35.649Z,77.09
2023-05-14T13:44:02.104Z,80.89
2023-05-14T13:46:28.867Z,86.43
2023-05-14T13:48:55.307Z,87.55
2023-05-14T13:51:22.783Z,85.20
2023-05-14T13:53:49.996Z,82.08
2023-05-14T13:56:16.436Z,82.01
2023-05-14T13:58:42.923Z,80.65
2023-05-14T14:01:09.403Z,79.43
2023-05-14T14:03:35.790Z,81.37
2023-05-14T14:06:02.204Z,82.93
2023-05-14T14:08:28.623Z,86.02
2023-05-14T14:10:55.488Z,85.50
2023-05-14T14:13:22.779Z,85.30
2023-05-14T14:15:49.984Z,87.16
2023-05-14T14:18:16.498Z,87.99
2023-05-14T14:20:42.949Z,90.57
2023-05-14T14:23:09.337Z,87.56
2023-05-14T14:25:35.827Z,91.30
2023-05-14T14:28:02.221Z,87.94
2023-05-14T14:30:28.864Z,89.03
2023-05-14T14:32:55.346Z,88.88
2023-05-14T14:35:23.333Z,88.50
2023-05-14T14:37:50.792Z,87.50
2023-05-14T14:40:17.420Z,85.50
2023-05-14T14:42:44.191Z,87.89
2023-05-14T14:45:11.201Z,87.10
2023-05-14T14:47:37.766Z,86.35
2023-05-14T14:50:04.843Z,87.97
2023-05-14T14:52:31.313Z,88.08
2023-05-14T14:54:57.800Z,86.33
2023-05-14T14:57:24.190Z,85.94
2023-05-14T14:59:50.591Z,85.59
2023-05-14T15:02:17.059Z,84.97
2023-05-14T15:04:43.672Z,86.03
2023-05-14T15:07:10.066Z,85.74
2023-05-14T15:09:36.540Z,86.18
2023-05-14T15:12:03.001Z,83.07
2023-05-14T15:14:29.409Z,82.64
2023-05-14T15:16:55.894Z,83.31
2023-05-14T15:19:22.303Z,84.36
2023-05-14T15:21:48.890Z,82.75
2023-05-14T15:24:15.320Z,83.28
2023-05-14T15:26:41.806Z,84.23
2023-05-14T15:29:08.244Z,82.08
2023-05-14T15:31:34.952Z,81.49
2023-05-14T15:34:01.525Z,84.92
2023-05-14T15:36:28.627Z,82.24
2023-05-14T15:38:55.076Z,79.99
2023-05-14T15:41:22.707Z,81.39
2023-05-14T15:43:49.137Z,82.23
2023-05-14T15:46:15.542Z,82.54
2023-05-14T15:48:42.135Z,82.23
2023-05-14T15:51:08.664Z,79.99
2023-05-14T15:53:35.175Z,80.80
2023-05-14T15:56:02.317Z,83.01
2023-05-14T15:58:28.810Z,83.04
2023-05-14T16:00:55.186Z,80.99
2023-05-14T16:03:21.731Z,81.02
2023-05-14T16:05:48.581Z,80.30
2023-05-14T16:08:15.041Z,81.07
2023-05-14T16:10:41.505Z,78.84
2023-05-14T16:13:07.921Z,76.77
2023-05-14T16:15:34.370Z,78.67
2023-05-14T16:18:00.977Z,80.26
2023-05-14T16:20:27.402Z,80.51
2023-05-14T16:22:53.784Z,78.16
2023-05-14T16:25:20.298Z,79.11
2023-05-14T16:27:46.761Z,79.46
2023-05-14T16:30:13.376Z,80.03
2023-05-14T16:32:41.839Z,80.37
2023-05-14T16:35:08.863Z,80.17
2023-05-14T16:37:35.791Z,79.95
2023-05-14T16:40:02.345Z,79.53
2023-05-14T16:42:28.913Z,79.52
2023-05-14T16:44:55.326Z,80.64
2023-05-14T16:47:21.734Z,80.32
2023-05-14T16:49:48.524Z,79.30
2023-05-14T16:52:15.082Z,75.20
2023-05-14T16:54:41.544Z,75.67
2023-05-14T16:57:07.965Z,77.81
2023-05-14T16:59:34.398Z,79.42
2023-05-14T17:02:00.878Z,76.17
2023-05-14T17:04:27.542Z,76.00
2023-05-14T17:06:55.062Z,76.00
2023-05-14T17:09:21.537Z,76.59
2023-05-14T17:11:47.933Z,75.22
2023-05-14T17:14:14.388Z,74.53
2023-05-14T17:16:43.611Z,75.92
2023-05-14T17:19:10.094Z,74.34
2023-05-14T17:21:36.618Z,75.36
2023-05-14T17:24:03.069Z,74.84
2023-05-14T17:26:29.536Z,75.17
2023-05-14T17:28:56.008Z,73.88
2023-05-14T17:31:23.243Z,74.62
2023-05-14T17:33:49.734Z,75.06
2023-05-14T17:36:16.253Z,74.56
2023-05-14T17:38:42.664Z,73.70
2023-05-14T17:41:09.779Z,75.01
2023-05-14T17:43:36.225Z,74.31
2023-05-14T17:46:03.524Z,73.43
2023-05-14T17:48:30.034Z,73.97
2023-05-14T17:50:56.544Z,73.94
2023-05-14T17:53:24.007Z,73.22
2023-05-14T17:55:50.764Z,73.79
2023-05-14T17:58:17.313Z,74.14
2023-05-14T18:00:44.064Z,74.73
2023-05-14T18:03:10.730Z,74.93
2023-05-14T18:05:37.276Z,75.03
2023-05-14T18:08:03.782Z,75.59
2023-05-14T18:10:30.239Z,75.28
2023-05-14T18:12:56.790Z,75.20
2023-05-14T18:15:25.734Z,75.76
2023-05-14T18:17:52.812Z,75.38
2023-05-14T18:20:19.688Z,75.42
2023-05-14T18:22:46.145Z,75.50
2023-05-14T18:25:13.654Z,75.45
2023-05-14T18:27:44.459Z,75.22
2023-05-14T18:30:15.304Z,76.00
2023-05-14T18:32:44.175Z,75.42
2023-05-14T18:35:11.672Z,75.09
2023-05-14T18:37:38.189Z,75.68
2023-05-14T18:40:06.865Z,76.07
2023-05-14T18:42:34.499Z,76.38
2023-05-14T18:45:01.428Z,77.14
2023-05-14T18:47:28.043Z,78.50
2023-05-14T18:49:55.798Z,79.19
2023-05-14T18:52:26.204Z,80.28
2023-05-14T18:54:53.748Z,81.17
2023-05-14T18:57:20.966Z,81.89
2023-05-14T18:59:47.393Z,83.04
2023-05-14T19:02:13.832Z,84.01
2023-05-14T19:04:51.026Z,83.95
2023-05-14T19:07:18.788Z,83.99
2023-05-14T19:09:45.227Z,85.16
2023-05-14T19:12:11.669Z,85.27
2023-05-14T19:14:38.110Z,85.03
2023-05-14T19:17:05.484Z,86.16
2023-05-14T19:19:31.921Z,85.90
2023-05-14T19:21:58.343Z,86.88
2023-05-14T19:24:24.854Z,86.25
2023-05-14T19:26:51.269Z,85.70
2023-05-14T19:29:17.694Z,85.73
2023-05-14T19:31:44.182Z,85.77
2023-05-14T19:34:10.840Z,86.46
2023-05-14T19:36:37.306Z,86.93
2023-05-14T19:39:03.859Z,88.05
2023-05-14T19:41:30.266Z,87.23
2023-05-14T19:43:56.913Z,87.60
2023-05-14T19:46:23.632Z,87.84
2023-05-14T19:48:50.127Z,87.78
2023-05-14T19:51:16.546Z,88.38
2023-05-14T19:53:43.107Z,88.25
2023-05-14T19:56:09.588Z,88.03
2023-05-14T19:58:36.063Z,88.46
2023-05-14T20:01:02.585Z,87.80
2023-05-14T20:03:29.801Z,87.56
2023-05-14T20:05:56.439Z,87.85
2023-05-14T20:08:22.861Z,88.13
2023-05-14T20:10:49.308Z,88.45
2023-05-14T20:13:15.752Z,89.46
2023-05-14T20:15:42.899Z,89.69
2023-05-14T20:18:09.645Z,90.11
2023-05-14T20:20:36.595Z,89.58
2023-05-14T20:23:03.567Z,88.93
2023-05-14T20:25:30.172Z,89.48
2023-05-14T20:27:56.850Z,88.75
2023-05-14T20:30:23.352Z,89.09
2023-05-14T20:32:49.922Z,90.25
2023-05-14T20:35:16.727Z,91.71
2023-05-14T20:37:43.164Z,92.67
2023-05-14T20:40:12.231Z,94.63
2023-05-14T20:42:39.008Z,95.19
2023-05-14T20:45:06.619Z,95.94
2023-05-14T20:47:34.183Z,96.34
2023-05-14T20:50:01.243Z,93.05
2023-05-14T20:52:27.666Z,91.97
2023-05-14T20:54:54.058Z,92.13
2023-05-14T20:57:20.562Z,90.69
2023-05-14T20:59:47.504Z,90.93
2023-05-14T21:02:14.079Z,90.74
2023-05-14T21:04:43.612Z,90.44
2023-05-14T21:07:10.362Z,89.62
2023-05-14T21:09:37.318Z,90.31
2023-05-14T21:12:04.113Z,89.59
2023-05-14T21:14:31.837Z,89.67
2023-05-14T21:16:58.316Z,90.12
2023-05-14T21:19:27.919Z,90.25
2023-05-14T21:21:55.547Z,91.33
2023-05-14T21:24:22.123Z,91.23
2023-05-14T21:26:48.758Z,90.16
2023-05-14T21:29:16.518Z,90.52
2023-05-14T21:31:43.061Z,89.89
2023-05-14T21:34:09.695Z,89.44
2023-05-14T21:36:36.400Z,86.10
2023-05-14T21:50:05.556Z,82.83
2023-05-14T21:52:32.165Z,81.32
2023-05-14T21:55:01.704Z,81.74
2023-05-14T21:57:29.208Z,82.76
2023-05-14T21:59:56.715Z,83.25
2023-05-14T22:02:23.505Z,82.61
2023-05-14T22:04:50.467Z,82.71
2023-05-14T22:07:17.022Z,83.36
2023-05-14T22:14:36.884Z,82.21
2023-05-14T22:17:04.785Z,80.84
2023-05-14T22:19:31.408Z,80.41
2023-05-14T22:49:21.760Z,80.12
2023-05-14T22:51:48.275Z,79.91
2023-05-14T22:54:15.165Z,80.89
2023-05-14T22:56:41.764Z,80.34
2023-05-14T22:59:08.205Z,81.33
2023-05-14T23:01:35.103Z,80.17
2023-05-14T23:04:01.888Z,80.67
2023-05-14T23:06:30.038Z,81.03
2023-05-14T23:08:56.565Z,81.33
2023-05-14T23:11:26.280Z,80.66
2023-05-14T23:13:52.910Z,81.21
2023-05-14T23:35:52.848Z,81.84
2023-05-14T23:38:19.711Z,81.28
2023-05-14T23:40:46.596Z,80.97
2023-05-14T23:43:14.658Z,80.88
2023-05-14T23:45:41.562Z,81.01
2023-05-14T23:48:08.628Z,80.73
2023-05-14T23:50:35.521Z,80.92
2023-05-14T23:53:02.193Z,80.97
2023-05-14T23:55:28.820Z,81.30
2023-05-14T23:57:55.553Z,81.71
